createdAt,value
2017-12-16T00:02:42.742Z,64.90
2017-12-16T00:05:15.833Z,64.95
2017-12-16T00:07:52.591Z,64.87
2017-12-16T00:10:28.144Z,64.31
2017-12-16T00:12:58.069Z,64.29
2017-12-16T00:15:31.760Z,64.10
2017-12-16T00:18:36.800Z,63.34
2017-12-16T00:21:09.306Z,62.74
2017-12-16T00:23:51.218Z,63.02
2017-12-16T00:26:27.135Z,63.75
2017-12-16T00:28:58.630Z,64.48
2017-12-16T00:31:29.837Z,64.24
2017-12-16T00:34:03.947Z,64.39
2017-12-16T00:37:33.658Z,64.76
2017-12-16T00:40:08.409Z,64.25
2017-12-16T00:42:45.589Z,63.75
2017-12-16T00:45:20.477Z,64.65
2017-12-16T00:47:59.298Z,65.40
2017-12-16T00:50:33.823Z,65.33
2017-12-16T00:53:09.910Z,65.08
2017-12-16T00:55:47.207Z,65.10
2017-12-16T00:58:27.956Z,65.02
2017-12-16T01:01:05.798Z,65.10
2017-12-16T01:03:38.736Z,65.05
2017-12-16T01:06:13.389Z,64.18
2017-12-16T01:08:45.766Z,63.88
2017-12-16T01:11:17.889Z,64.27
2017-12-16T01:13:52.865Z,65.00
2017-12-16T01:16:28.845Z,64.87
2017-12-16T01:19:07.369Z,63.69
2017-12-16T01:21:59.670Z,63.39
2017-12-16T01:24:39.287Z,63.49
2017-12-16T01:27:41.244Z,64.81
2017-12-16T01:30:35.615Z,64.15
2017-12-16T01:33:59.252Z,63.50
2017-12-16T01:36:49.821Z,62.63
2017-12-16T01:39:30.826Z,62.58
2017-12-16T01:44:43.246Z,63.48
2017-12-16T01:47:21.192Z,63.58
2017-12-16T01:49:54.587Z,63.80
2017-12-16T01:56:12.516Z,63.35
2017-12-16T01:58:44.472Z,62.72
2017-12-16T02:01:24.307Z,62.28
2017-12-16T02:04:13.933Z,62.72
2017-12-16T02:09:37.099Z,62.81
2017-12-16T02:12:14.153Z,63.70
2017-12-16T02:14:47.596Z,64.16
2017-12-16T02:17:22.232Z,63.52
2017-12-16T02:19:55.295Z,63.45
2017-12-16T02:22:31.625Z,64.03
2017-12-16T02:25:16.639Z,63.93
2017-12-16T02:28:37.411Z,63.22
2017-12-16T02:31:10.196Z,63.20
2017-12-16T02:34:48.725Z,63.20
2017-12-16T02:37:24.760Z,63.50
2017-12-16T02:40:15.903Z,63.47
2017-12-16T02:43:13.486Z,63.69
2017-12-16T02:45:51.746Z,64.60
2017-12-16T02:48:24.546Z,64.77
2017-12-16T02:50:59.055Z,63.46
2017-12-16T02:57:53.106Z,63.34
2017-12-16T03:00:31.795Z,63.86
2017-12-16T03:03:23.427Z,63.32
2017-12-16T03:05:59.345Z,63.69
2017-12-16T03:08:32.813Z,63.35
2017-12-16T03:11:05.944Z,63.27
2017-12-16T03:13:42.777Z,63.07
2017-12-16T03:16:31.913Z,63.67
2017-12-16T03:19:09.566Z,63.96
2017-12-16T03:21:54.154Z,63.99
2017-12-16T03:25:01.768Z,64.10
2017-12-16T03:27:37.643Z,65.45
2017-12-16T03:30:08.082Z,66.05
2017-12-16T03:35:39.243Z,66.48
2017-12-16T03:38:14.495Z,64.89
2017-12-16T03:40:56.702Z,64.52
2017-12-16T03:43:42.857Z,64.34
2017-12-16T03:46:20.839Z,65.04
2017-12-16T03:48:55.821Z,65.18
2017-12-16T03:51:27.959Z,64.84
2017-12-16T03:54:05.637Z,64.45
2017-12-16T03:57:16.173Z,64.54
2017-12-16T03:59:52.967Z,63.88
2017-12-16T04:02:24.178Z,64.15
2017-12-16T04:05:18.404Z,63.70
2017-12-16T04:07:49.322Z,63.98
2017-12-16T04:10:21.432Z,65.13
2017-12-16T04:12:52.410Z,63.46
2017-12-16T04:15:25.443Z,63.62
2017-12-16T04:18:04.681Z,64.24
2017-12-16T04:20:37.068Z,65.29
2017-12-16T04:23:08.633Z,65.76
2017-12-16T04:25:38.722Z,65.56
2017-12-16T04:28:10.476Z,65.46
2017-12-16T04:30:41.406Z,64.26
2017-12-16T04:33:15.985Z,63.73
2017-12-16T04:35:47.230Z,64.12
2017-12-16T04:38:19.691Z,63.56
2017-12-16T04:40:54.366Z,63.62
2017-12-16T04:43:24.405Z,63.93
2017-12-16T04:45:54.552Z,64.26
2017-12-16T04:48:25.293Z,64.00
2017-12-16T04:51:05.850Z,64.21
2017-12-16T04:53:38.323Z,64.12
2017-12-16T04:56:14.085Z,64.66
2017-12-16T04:58:44.345Z,65.17
2017-12-16T05:01:18.200Z,65.33
2017-12-16T05:06:33.685Z,65.31
2017-12-16T05:09:05.057Z,65.87
2017-12-16T05:11:36.685Z,65.94
2017-12-16T05:14:07.081Z,65.59
2017-12-16T05:16:38.769Z,65.05
2017-12-16T05:19:09.347Z,65.99
2017-12-16T05:21:39.752Z,65.42
2017-12-16T05:24:18.325Z,65.17
2017-12-16T05:26:51.930Z,64.74
2017-12-16T05:29:23.252Z,64.66
2017-12-16T05:31:55.108Z,64.03
2017-12-16T05:34:34.365Z,64.63
2017-12-16T05:37:07.862Z,65.03
2017-12-16T05:39:38.411Z,65.23
2017-12-16T05:42:11.305Z,64.84
2017-12-16T05:44:42.105Z,64.83
2017-12-16T05:47:16.419Z,64.92
2017-12-16T05:49:47.835Z,64.29
2017-12-16T05:52:28.154Z,64.14
2017-12-16T05:55:02.673Z,63.70
2017-12-16T05:57:34.173Z,64.03
2017-12-16T06:00:04.743Z,63.94
2017-12-16T06:02:34.338Z,64.06
2017-12-16T06:05:12.963Z,63.97
2017-12-16T06:07:47.142Z,63.76
2017-12-16T06:10:18.434Z,63.93
2017-12-16T06:12:52.860Z,63.95
2017-12-16T06:15:38.634Z,63.95
2017-12-16T06:18:13.766Z,64.30
2017-12-16T06:20:47.122Z,64.68
2017-12-16T06:23:20.340Z,64.05
2017-12-16T06:25:54.528Z,64.05
2017-12-16T06:31:44.549Z,63.54
2017-12-16T06:34:15.319Z,63.73
2017-12-16T06:36:46.641Z,64.42
2017-12-16T06:39:17.360Z,64.17
2017-12-16T06:41:51.112Z,64.41
2017-12-16T06:44:24.020Z,64.24
2017-12-16T06:46:57.359Z,64.31
2017-12-16T06:49:30.163Z,64.18
2017-12-16T06:52:04.454Z,64.23
2017-12-16T06:54:37.784Z,64.27
2017-12-16T06:57:11.720Z,63.83
2017-12-16T06:59:42.401Z,64.00
2017-12-16T07:02:14.124Z,63.99
2017-12-16T07:04:47.016Z,63.71
2017-12-16T07:07:31.011Z,63.93
2017-12-16T07:10:15.554Z,63.57
2017-12-16T07:13:02.485Z,64.57
2017-12-16T07:15:33.625Z,64.62
2017-12-16T07:18:05.193Z,64.33
2017-12-16T07:20:35.271Z,64.49
2017-12-16T07:23:09.272Z,64.42
2017-12-16T07:25:41.337Z,64.41
2017-12-16T07:28:13.250Z,64.25
2017-12-16T07:30:43.183Z,63.94
2017-12-16T07:33:13.686Z,64.12
2017-12-16T07:35:48.581Z,64.25
2017-12-16T07:38:26.483Z,64.64
2017-12-16T07:40:58.685Z,64.60
2017-12-16T07:43:28.331Z,64.54
2017-12-16T07:46:03.350Z,65.49
2017-12-16T07:48:33.773Z,65.52
2017-12-16T07:51:07.541Z,65.31
2017-12-16T07:54:03.011Z,65.01
2017-12-16T07:56:35.345Z,64.03
2017-12-16T07:59:06.323Z,64.07
2017-12-16T08:01:39.161Z,63.97
2017-12-16T08:04:10.170Z,64.11
2017-12-16T08:06:42.704Z,63.68
2017-12-16T08:09:13.772Z,63.56
2017-12-16T08:11:55.094Z,63.68
2017-12-16T08:14:27.212Z,63.98
2017-12-16T08:17:07.538Z,64.10
2017-12-16T08:19:39.223Z,63.85
2017-12-16T08:22:20.212Z,64.53
2017-12-16T08:24:52.694Z,64.82
2017-12-16T08:27:25.292Z,64.33
2017-12-16T08:29:55.240Z,62.93
2017-12-16T08:32:28.312Z,62.38
2017-12-16T08:34:58.462Z,62.56
2017-12-16T08:37:31.212Z,62.48
2017-12-16T08:40:02.700Z,62.32
2017-12-16T08:42:35.724Z,61.26
2017-12-16T08:45:10.577Z,61.76
2017-12-16T08:47:45.884Z,62.15
2017-12-16T08:50:20.951Z,62.40
2017-12-16T08:52:56.085Z,61.75
2017-12-16T08:55:28.263Z,61.24
2017-12-16T08:58:01.070Z,61.16
2017-12-16T09:00:33.172Z,60.45
2017-12-16T09:03:05.904Z,60.92
2017-12-16T09:05:39.053Z,61.54
2017-12-16T09:08:11.445Z,61.99
2017-12-16T09:14:30.387Z,62.33
2017-12-16T09:17:07.353Z,63.02
2017-12-16T09:19:43.243Z,61.94
2017-12-16T09:22:20.003Z,61.83
2017-12-16T09:24:55.306Z,61.85
2017-12-16T09:27:33.224Z,61.76
2017-12-16T09:30:04.174Z,61.82
2017-12-16T09:32:36.244Z,61.57
2017-12-16T09:35:07.048Z,60.13
2017-12-16T09:37:39.314Z,60.52
2017-12-16T09:40:11.858Z,60.60
2017-12-16T09:42:42.769Z,60.38
2017-12-16T09:45:15.287Z,59.96
2017-12-16T09:47:46.832Z,59.90
2017-12-16T09:50:23.298Z,58.77
2017-12-16T09:52:58.214Z,58.66
2017-12-16T09:55:28.972Z,58.65
2017-12-16T10:28:24.586Z,56.17
2017-12-16T10:30:55.809Z,56.47
2017-12-16T10:33:28.704Z,56.46
2017-12-16T10:36:09.261Z,55.95
2017-12-16T10:38:45.263Z,54.88
2017-12-16T10:41:25.938Z,54.71
2017-12-16T10:44:01.676Z,54.62
2017-12-16T10:46:37.753Z,53.98
2017-12-16T10:49:09.071Z,54.89
2017-12-16T10:51:42.252Z,54.63
2017-12-16T10:54:13.104Z,54.07
2017-12-16T10:56:50.474Z,54.85
2017-12-16T10:59:29.297Z,54.38
2017-12-16T11:02:00.523Z,53.38
2017-12-16T11:04:30.948Z,52.18
2017-12-16T11:07:04.214Z,51.43
2017-12-16T11:09:37.236Z,51.43
2017-12-16T11:12:09.156Z,52.09
2017-12-16T11:14:39.003Z,52.21
2017-12-16T11:17:10.213Z,53.58
2017-12-16T11:19:41.746Z,52.96
2017-12-16T11:22:19.248Z,53.65
2017-12-16T11:24:53.801Z,52.45
2017-12-16T11:27:26.728Z,52.76
2017-12-16T11:30:02.840Z,52.47
2017-12-16T11:32:42.600Z,52.38
2017-12-16T11:35:18.414Z,52.63
2017-12-16T11:37:51.613Z,51.16
2017-12-16T11:40:22.402Z,51.57
2017-12-16T11:42:52.616Z,51.56
2017-12-16T11:45:23.702Z,51.44
2017-12-16T11:47:54.619Z,50.58
2017-12-16T11:50:26.503Z,50.63
2017-12-16T11:52:57.105Z,51.57
2017-12-16T11:55:28.522Z,52.02
2017-12-16T11:58:35.242Z,52.21
2017-12-16T12:01:06.475Z,51.70
2017-12-16T12:03:57.015Z,51.70
2017-12-16T12:06:40.474Z,52.09
2017-12-16T12:09:10.933Z,51.88
2017-12-16T12:11:49.356Z,52.38
2017-12-16T12:14:40.233Z,52.53
2017-12-16T12:17:37.162Z,51.66
2017-12-16T12:20:24.197Z,50.78
2017-12-16T12:22:59.211Z,52.12
2017-12-16T12:25:32.355Z,52.36
2017-12-16T12:28:14.341Z,52.56
2017-12-16T12:38:36.686Z,51.57
2017-12-16T12:41:12.116Z,51.43
2017-12-16T12:43:49.686Z,51.69
2017-12-16T12:46:46.668Z,51.38
2017-12-16T12:49:18.147Z,51.61
2017-12-16T12:52:00.098Z,51.17
2017-12-16T12:54:32.948Z,51.58
2017-12-16T12:57:06.740Z,50.94
2017-12-16T12:59:52.496Z,50.70
2017-12-16T13:02:28.151Z,50.52
2017-12-16T13:05:23.374Z,50.14
2017-12-16T13:08:21.868Z,50.15
2017-12-16T13:11:55.405Z,49.00
2017-12-16T13:14:27.291Z,49.44
2017-12-16T13:17:03.032Z,46.97
2017-12-16T13:19:39.224Z,48.80
2017-12-16T13:22:10.447Z,47.68
2017-12-16T13:24:42.072Z,47.29
2017-12-16T13:27:12.668Z,46.42
2017-12-16T13:30:14.947Z,46.47
2017-12-16T13:32:45.860Z,46.09
2017-12-16T13:35:26.213Z,47.87
2017-12-16T13:37:56.764Z,48.57
2017-12-16T13:40:33.142Z,47.43
2017-12-16T13:43:07.819Z,47.29
2017-12-16T13:45:44.633Z,48.19
2017-12-16T13:48:19.944Z,48.04
2017-12-16T13:50:59.793Z,48.73
2017-12-16T13:53:32.661Z,48.39
2017-12-16T13:56:03.695Z,48.82
2017-12-16T13:58:37.656Z,48.84
2017-12-16T14:01:18.472Z,49.93
2017-12-16T14:03:53.691Z,49.85
2017-12-16T14:06:28.038Z,50.45
2017-12-16T14:08:59.186Z,50.53
2017-12-16T14:11:30.142Z,50.73
2017-12-16T14:14:01.797Z,49.59
2017-12-16T14:16:39.376Z,49.52
2017-12-16T14:19:25.138Z,49.72
2017-12-16T14:21:54.963Z,50.39
2017-12-16T14:24:30.331Z,49.95
2017-12-16T14:27:18.766Z,50.28
2017-12-16T14:30:13.443Z,51.00
2017-12-16T14:32:47.939Z,51.17
2017-12-16T14:35:18.321Z,51.32
2017-12-16T14:37:50.991Z,51.97
2017-12-16T14:40:22.731Z,52.88
2017-12-16T14:43:03.817Z,53.31
2017-12-16T14:45:38.524Z,53.40
2017-12-16T14:48:16.689Z,53.55
2017-12-16T14:50:51.813Z,53.58
2017-12-16T14:53:23.531Z,53.66
2017-12-16T14:55:59.312Z,53.73
2017-12-16T14:58:36.469Z,53.81
2017-12-16T15:01:11.204Z,54.31
2017-12-16T15:03:44.173Z,54.61
2017-12-16T15:06:17.100Z,54.96
2017-12-16T15:09:09.539Z,54.95
2017-12-16T15:12:54.923Z,54.90
2017-12-16T15:15:28.422Z,56.51
2017-12-16T15:21:43.390Z,56.38
2017-12-16T15:24:18.392Z,56.26
2017-12-16T15:26:50.495Z,56.04
2017-12-16T15:29:21.923Z,56.17
2017-12-16T15:31:55.140Z,55.99
2017-12-16T15:34:25.241Z,57.53
2017-12-16T15:36:54.974Z,58.03
2017-12-16T15:42:31.363Z,57.26
2017-12-16T15:45:01.688Z,57.14
2017-12-16T15:47:33.940Z,57.23
2017-12-16T15:50:04.500Z,57.17
2017-12-16T15:52:36.530Z,57.10
2017-12-16T15:55:08.126Z,57.31
2017-12-16T15:57:40.735Z,58.06
2017-12-16T16:00:13.235Z,57.86
2017-12-16T16:02:45.065Z,57.65
2017-12-16T16:07:55.981Z,57.89
2017-12-16T16:10:37.234Z,58.22
2017-12-16T16:13:06.972Z,58.64
2017-12-16T16:15:38.109Z,58.40
2017-12-16T16:18:18.052Z,57.78
2017-12-16T16:20:50.230Z,58.00
2017-12-16T16:23:21.823Z,57.91
2017-12-16T16:25:53.186Z,58.55
2017-12-16T16:28:24.123Z,58.61
2017-12-16T16:31:03.134Z,59.07
2017-12-16T16:33:37.557Z,59.00
2017-12-16T16:36:10.398Z,58.78
2017-12-16T16:38:43.759Z,58.28
2017-12-16T16:41:18.511Z,58.12
2017-12-16T16:43:50.401Z,57.80
2017-12-16T16:46:21.950Z,58.08
2017-12-16T16:48:53.391Z,58.43
2017-12-16T16:51:27.078Z,59.17
2017-12-16T16:53:59.326Z,59.99
2017-12-16T16:56:49.000Z,60.16
2017-12-16T16:59:21.852Z,59.52
2017-12-16T17:01:58.551Z,59.54
2017-12-16T17:04:31.407Z,59.29
2017-12-16T17:07:03.628Z,59.01
2017-12-16T17:09:40.403Z,59.53
2017-12-16T17:12:22.439Z,60.43
2017-12-16T17:14:54.124Z,60.85
2017-12-16T17:17:24.544Z,61.20
2017-12-16T17:19:56.969Z,60.82
2017-12-16T17:22:27.596Z,61.33
2017-12-16T17:24:57.595Z,61.25
2017-12-16T17:27:28.242Z,61.22
2017-12-16T17:30:02.654Z,60.75
2017-12-16T17:32:37.031Z,61.34
2017-12-16T17:35:24.627Z,60.70
2017-12-16T17:37:54.581Z,60.41
2017-12-16T17:40:26.387Z,60.68
2017-12-16T17:43:07.123Z,60.54
2017-12-16T17:45:48.360Z,61.13
2017-12-16T17:49:08.164Z,61.34
2017-12-16T17:51:42.173Z,61.16
2017-12-16T17:54:27.648Z,61.88
2017-12-16T17:56:59.543Z,62.34
2017-12-16T17:59:54.467Z,62.10
2017-12-16T18:02:29.607Z,62.95
2017-12-16T18:05:24.133Z,62.62
2017-12-16T18:07:58.643Z,62.14
2017-12-16T18:10:34.969Z,61.67
2017-12-16T18:13:09.682Z,61.28
2017-12-16T18:16:07.241Z,61.65
2017-12-16T18:18:40.150Z,62.89
2017-12-16T18:21:27.570Z,62.26
2017-12-16T18:24:08.645Z,61.24
2017-12-16T18:31:17.400Z,62.08
2017-12-16T18:33:57.724Z,61.39
2017-12-16T18:36:34.328Z,61.21
2017-12-16T18:39:25.612Z,61.18
2017-12-16T18:42:05.163Z,59.65
2017-12-16T18:44:35.917Z,60.70
2017-12-16T18:47:11.096Z,61.28
2017-12-16T18:49:44.309Z,61.48
2017-12-16T18:52:27.382Z,61.28
2017-12-16T18:54:59.939Z,62.50
2017-12-16T18:57:31.998Z,62.96
2017-12-16T19:00:03.050Z,62.83
2017-12-16T19:02:45.426Z,62.24
2017-12-16T19:05:23.102Z,61.71
2017-12-16T19:07:54.249Z,61.42
2017-12-16T19:10:27.489Z,61.15
2017-12-16T19:16:25.123Z,62.44
2017-12-16T19:19:03.242Z,62.58
2017-12-16T19:21:48.697Z,62.27
2017-12-16T19:24:21.636Z,62.34
2017-12-16T19:26:55.118Z,61.41
2017-12-16T19:29:48.941Z,60.99
2017-12-16T19:32:25.290Z,61.54
2017-12-16T19:35:03.025Z,61.52
2017-12-16T19:37:42.045Z,61.63
2017-12-16T19:40:25.144Z,61.99
2017-12-16T19:42:59.930Z,62.49
2017-12-16T19:45:34.669Z,62.74
2017-12-16T19:48:20.571Z,62.46
2017-12-16T19:51:01.278Z,62.98
2017-12-16T19:54:05.158Z,63.16
2017-12-16T19:56:45.307Z,63.17
2017-12-16T19:59:18.201Z,63.27
2017-12-16T20:01:48.933Z,63.62
2017-12-16T20:04:39.479Z,63.77
2017-12-16T20:07:18.130Z,64.46
2017-12-16T20:10:04.358Z,65.41
2017-12-16T20:12:46.633Z,65.44
2017-12-16T20:15:48.965Z,65.31
2017-12-16T20:18:23.781Z,65.30
2017-12-16T20:20:59.927Z,64.91
2017-12-16T20:23:57.132Z,64.65
2017-12-16T20:26:54.232Z,64.22
2017-12-16T20:29:26.963Z,64.42
2017-12-16T20:31:59.678Z,65.31
2017-12-16T20:34:49.206Z,66.02
2017-12-16T20:37:33.771Z,64.67
2017-12-16T20:40:18.824Z,64.77
2017-12-16T20:42:55.161Z,64.96
2017-12-16T20:45:27.662Z,64.27
2017-12-16T20:47:59.685Z,63.07
2017-12-16T20:50:34.321Z,62.75
2017-12-16T20:53:04.538Z,62.56
2017-12-16T20:55:45.469Z,62.32
2017-12-16T20:58:22.371Z,62.84
2017-12-16T21:00:59.729Z,63.34
2017-12-16T21:03:43.780Z,64.31
2017-12-16T21:06:29.234Z,65.88
2017-12-16T21:09:05.990Z,66.02
2017-12-16T21:11:47.599Z,65.71
2017-12-16T21:14:32.805Z,65.74
2017-12-16T21:17:06.376Z,64.25
2017-12-16T21:19:43.114Z,63.98
2017-12-16T21:22:17.444Z,64.48
2017-12-16T21:25:05.166Z,63.76
2017-12-16T21:27:50.296Z,63.57
2017-12-16T21:30:22.972Z,63.36
2017-12-16T21:33:02.667Z,63.07
2017-12-16T21:35:48.930Z,63.34
2017-12-16T21:38:22.097Z,62.38
2017-12-16T21:40:58.390Z,62.57
2017-12-16T21:43:47.503Z,63.37
2017-12-16T21:46:37.010Z,63.61
2017-12-16T21:49:17.875Z,64.39
2017-12-16T21:52:27.559Z,64.47
2017-12-16T21:55:03.044Z,63.99
2017-12-16T21:57:33.904Z,65.12
2017-12-16T22:00:07.119Z,67.06
2017-12-16T22:02:44.467Z,68.49
2017-12-16T22:05:20.785Z,68.87
2017-12-16T22:07:52.625Z,69.21
2017-12-16T22:10:25.958Z,68.49
2017-12-16T22:12:59.165Z,67.72
2017-12-16T22:15:31.571Z,66.42
2017-12-16T22:18:02.462Z,65.79
2017-12-16T22:20:34.990Z,65.19
2017-12-16T22:25:48.234Z,64.75
2017-12-16T22:28:19.935Z,64.68
2017-12-16T22:30:53.141Z,64.10
2017-12-16T22:33:24.474Z,63.50
2017-12-16T22:35:55.865Z,63.02
2017-12-16T22:38:25.894Z,63.46
2017-12-16T22:40:58.709Z,64.27
2017-12-16T22:43:30.830Z,65.04
2017-12-16T22:46:04.334Z,66.06
2017-12-16T22:51:28.643Z,65.78
2017-12-16T22:54:00.931Z,66.24
2017-12-16T22:56:31.647Z,65.48
2017-12-16T22:59:03.127Z,63.10
2017-12-16T23:01:34.961Z,63.32
2017-12-16T23:04:21.274Z,63.90
2017-12-16T23:06:59.651Z,64.64
2017-12-16T23:09:36.774Z,64.96
2017-12-16T23:12:08.252Z,65.60
2017-12-16T23:14:43.563Z,64.44
2017-12-16T23:17:23.245Z,64.43
2017-12-16T23:36:07.550Z,66.37
2017-12-16T23:50:39.251Z,65.61
2017-12-16T23:53:19.961Z,65.26
2017-12-16T23:56:14.714Z,65.10
2017-12-16T23:58:48.052Z,65.22
